createdAt,value
2022-12-25T00:01:11.903Z,1.80
2022-12-25T00:03:54.802Z,1.77
2022-12-25T00:06:39.035Z,1.65
2022-12-25T00:09:21.820Z,1.95
2022-12-25T00:12:04.806Z,1.73
2022-12-25T00:14:47.722Z,2.28
2022-12-25T00:17:30.565Z,2.85
2022-12-25T00:20:13.444Z,2.10
2022-12-25T00:22:57.797Z,1.95
2022-12-25T00:25:40.793Z,2.10
2022-12-25T00:28:24.786Z,2.10
2022-12-25T00:31:08.375Z,3.22
2022-12-25T00:33:52.856Z,1.90
2022-12-25T00:36:41.359Z,2.15
2022-12-25T00:39:26.122Z,3.40
2022-12-25T00:42:23.904Z,2.45
2022-12-25T00:45:07.458Z,2.63
2022-12-25T00:47:50.249Z,2.40
2022-12-25T00:50:33.052Z,2.13
2022-12-25T00:53:15.860Z,2.40
2022-12-25T00:56:01.745Z,2.40
2022-12-25T00:58:44.663Z,2.25
2022-12-25T01:01:27.559Z,1.98
2022-12-25T01:04:12.002Z,2.20
2022-12-25T01:06:54.740Z,2.38
2022-12-25T01:09:51.465Z,2.42
2022-12-25T01:12:38.940Z,2.60
2022-12-25T01:15:22.160Z,2.03
2022-12-25T01:18:07.887Z,2.10
2022-12-25T01:20:51.852Z,2.08
2022-12-25T01:23:34.668Z,2.03
2022-12-25T01:26:18.400Z,2.50
2022-12-25T01:29:02.549Z,2.90
2022-12-25T01:31:45.511Z,2.55
2022-12-25T01:34:28.447Z,2.67
2022-12-25T01:37:11.895Z,3.03
2022-12-25T01:39:54.796Z,1.85
2022-12-25T01:42:37.748Z,2.33
2022-12-25T01:45:39.678Z,3.22
2022-12-25T01:48:27.121Z,2.17
2022-12-25T01:51:22.580Z,1.85
2022-12-25T01:54:09.757Z,1.77
2022-12-25T01:56:54.927Z,1.98
2022-12-25T01:59:37.791Z,1.95
2022-12-25T02:02:22.429Z,1.85
2022-12-25T02:05:27.847Z,2.38
2022-12-25T02:10:55.747Z,2.65
2022-12-25T02:13:38.582Z,2.10
2022-12-25T02:16:26.608Z,1.77
2022-12-25T02:19:24.008Z,2.00
2022-12-25T02:22:17.084Z,2.50
2022-12-25T02:25:18.997Z,2.70
2022-12-25T02:28:14.669Z,2.97
2022-12-25T02:31:04.975Z,3.38
2022-12-25T02:34:05.517Z,3.35
2022-12-25T02:36:53.803Z,2.80
2022-12-25T02:40:00.603Z,3.30
2022-12-25T02:43:06.599Z,2.75
2022-12-25T02:46:12.310Z,3.22
2022-12-25T02:49:16.066Z,3.13
2022-12-25T02:52:20.600Z,3.45
2022-12-25T02:55:28.345Z,3.30
2022-12-25T02:58:32.486Z,3.83
2022-12-25T03:01:38.329Z,4.38
2022-12-25T03:04:42.289Z,3.70
2022-12-25T03:07:27.081Z,3.63
2022-12-25T03:10:30.115Z,6.40
2022-12-25T03:13:17.452Z,5.72
2022-12-25T03:16:17.559Z,4.75
2022-12-25T03:19:23.985Z,5.15
2022-12-25T03:22:27.081Z,5.20
2022-12-25T03:25:28.911Z,5.15
2022-12-25T03:28:11.677Z,5.72
2022-12-25T03:31:13.007Z,5.97
2022-12-25T03:34:50.833Z,4.95
2022-12-25T03:38:13.936Z,3.90
2022-12-25T03:41:19.687Z,3.10
2022-12-25T03:44:28.905Z,3.80
2022-12-25T03:47:36.750Z,5.07
2022-12-25T03:50:44.612Z,4.72
2022-12-25T03:53:47.700Z,5.03
2022-12-25T03:56:50.458Z,4.13
2022-12-25T03:59:50.562Z,6.15
2022-12-25T04:02:51.068Z,6.25
2022-12-25T04:05:52.676Z,6.50
2022-12-25T04:08:52.822Z,6.22
2022-12-25T04:11:58.816Z,7.47
2022-12-25T04:15:02.251Z,7.38
2022-12-25T04:18:02.636Z,7.80
2022-12-25T04:21:04.227Z,9.30
2022-12-25T04:24:04.547Z,9.40
2022-12-25T04:27:05.005Z,8.15
2022-12-25T04:30:13.745Z,7.97
2022-12-25T04:33:15.922Z,8.68
2022-12-25T04:36:12.321Z,7.97
2022-12-25T04:38:55.189Z,8.95
2022-12-25T04:41:37.980Z,11.77
2022-12-25T04:44:20.738Z,14.18
2022-12-25T04:47:09.182Z,9.10
2022-12-25T04:49:53.869Z,6.78
2022-12-25T04:52:39.077Z,7.55
2022-12-25T04:55:21.952Z,13.30
2022-12-25T04:58:04.751Z,12.85
2022-12-25T05:00:47.566Z,10.85
2022-12-25T05:03:31.393Z,12.80
2022-12-25T05:06:14.249Z,12.10
2022-12-25T05:08:58.912Z,10.05
2022-12-25T05:14:24.592Z,16.20
2022-12-25T05:17:08.266Z,15.05
2022-12-25T05:19:51.010Z,14.60
2022-12-25T05:22:34.081Z,10.85
2022-12-25T05:25:18.204Z,11.45
2022-12-25T05:28:01.059Z,11.15
2022-12-25T05:30:44.121Z,9.80
2022-12-25T05:33:26.993Z,11.10
2022-12-25T05:36:11.975Z,9.75
2022-12-25T05:38:55.088Z,11.68
2022-12-25T05:41:39.289Z,10.23
2022-12-25T05:44:22.267Z,9.07
2022-12-25T05:47:05.156Z,8.90
2022-12-25T05:49:48.006Z,9.82
2022-12-25T05:52:33.155Z,9.90
2022-12-25T05:55:16.035Z,10.57
2022-12-25T05:58:00.210Z,12.65
2022-12-25T06:00:45.340Z,12.27
2022-12-25T06:03:28.834Z,10.68
2022-12-25T06:06:12.568Z,12.10
2022-12-25T06:08:55.964Z,8.35
2022-12-25T06:11:38.758Z,9.98
2022-12-25T06:14:22.906Z,9.55
2022-12-25T06:17:05.750Z,9.27
2022-12-25T06:19:48.559Z,10.80
2022-12-25T06:22:32.164Z,10.70
2022-12-25T06:25:15.117Z,10.07
2022-12-25T06:27:57.943Z,10.88
2022-12-25T06:30:42.059Z,10.57
2022-12-25T06:33:24.916Z,10.90
2022-12-25T06:36:09.242Z,9.73
2022-12-25T06:38:52.640Z,8.18
2022-12-25T06:41:35.449Z,10.27
2022-12-25T06:44:18.248Z,10.18
2022-12-25T06:47:02.397Z,9.05
2022-12-25T06:49:45.243Z,11.55
2022-12-25T06:52:28.013Z,11.10
2022-12-25T06:55:11.156Z,10.23
2022-12-25T06:57:53.956Z,10.82
2022-12-25T07:00:36.894Z,9.48
2022-12-25T07:03:23.109Z,9.48
2022-12-25T07:06:06.202Z,6.78
2022-12-25T07:08:49.014Z,8.02
2022-12-25T07:11:32.253Z,6.38
2022-12-25T07:14:23.454Z,7.70
2022-12-25T07:17:07.148Z,5.65
2022-12-25T07:19:51.500Z,6.90
2022-12-25T07:22:34.296Z,7.38
2022-12-25T07:25:17.292Z,6.25
2022-12-25T07:28:00.105Z,6.20
2022-12-25T07:30:42.944Z,5.85
2022-12-25T07:33:25.781Z,5.72
2022-12-25T07:36:12.937Z,5.90
2022-12-25T07:38:56.157Z,5.72
2022-12-25T07:41:39.019Z,5.38
2022-12-25T07:44:30.827Z,4.75
2022-12-25T07:47:15.727Z,6.03
2022-12-25T07:49:58.525Z,5.07
2022-12-25T07:52:43.954Z,4.32
2022-12-25T07:55:26.864Z,4.57
2022-12-25T07:58:09.637Z,4.95
2022-12-25T08:00:52.681Z,4.55
2022-12-25T08:03:36.274Z,4.40
2022-12-25T08:06:19.619Z,5.20
2022-12-25T08:09:06.492Z,4.97
2022-12-25T08:11:49.279Z,5.20
2022-12-25T08:14:32.085Z,4.70
2022-12-25T08:17:14.919Z,6.03
2022-12-25T08:19:57.816Z,5.43
2022-12-25T08:22:40.625Z,4.90
2022-12-25T08:25:24.779Z,5.43
2022-12-25T08:28:07.662Z,6.22
2022-12-25T08:30:50.497Z,5.75
2022-12-25T08:33:33.293Z,4.65
2022-12-25T08:36:16.694Z,3.63
2022-12-25T08:39:02.963Z,4.60
2022-12-25T08:41:47.643Z,4.57
2022-12-25T08:44:30.436Z,5.47
2022-12-25T08:47:13.223Z,5.90
2022-12-25T08:49:55.987Z,7.20
2022-12-25T08:52:38.781Z,5.93
2022-12-25T08:55:21.591Z,7.40
2022-12-25T08:58:05.868Z,7.45
2022-12-25T09:00:49.807Z,7.38
2022-12-25T09:03:33.131Z,6.97
2022-12-25T09:06:17.553Z,5.18
2022-12-25T09:09:00.328Z,6.28
2022-12-25T09:11:43.131Z,5.28
2022-12-25T09:14:27.241Z,5.53
2022-12-25T09:17:10.196Z,6.10
2022-12-25T09:19:53.002Z,5.60
2022-12-25T09:22:35.795Z,4.40
2022-12-25T09:25:18.804Z,4.30
2022-12-25T09:28:01.564Z,3.47
2022-12-25T09:30:45.827Z,3.65
2022-12-25T09:33:28.666Z,3.58
2022-12-25T09:36:11.921Z,3.67
2022-12-25T09:38:54.775Z,3.88
2022-12-25T09:41:46.941Z,3.30
2022-12-25T09:44:34.899Z,3.72
2022-12-25T09:47:23.358Z,3.10
2022-12-25T09:50:12.518Z,2.60
2022-12-25T09:53:01.810Z,2.40
2022-12-25T09:55:50.687Z,2.63
2022-12-25T09:58:35.005Z,2.13
2022-12-25T10:01:27.343Z,2.28
2022-12-25T10:04:25.703Z,1.60
2022-12-25T10:07:18.834Z,1.52
2022-12-25T10:10:16.154Z,1.50
2022-12-25T10:13:08.594Z,1.50
2022-12-25T10:16:00.377Z,1.60
2022-12-25T10:18:55.615Z,1.40
2022-12-25T10:21:40.073Z,1.15
2022-12-25T10:24:34.152Z,0.98
2022-12-25T10:27:20.771Z,1.02
2022-12-25T10:30:15.448Z,1.00
2022-12-25T10:32:59.380Z,1.02
2022-12-25T10:35:42.896Z,0.90
2022-12-25T10:38:27.071Z,1.20
2022-12-25T10:41:19.973Z,1.30
2022-12-25T10:44:13.993Z,1.13
2022-12-25T10:46:58.560Z,1.52
2022-12-25T10:49:41.538Z,1.52
2022-12-25T10:52:26.341Z,1.50
2022-12-25T10:55:14.512Z,1.15
2022-12-25T10:57:58.622Z,0.98
2022-12-25T11:00:41.508Z,1.08
2022-12-25T11:03:26.665Z,1.20
2022-12-25T11:06:24.349Z,0.90
2022-12-25T11:09:07.768Z,0.95
2022-12-25T11:11:52.019Z,1.10
2022-12-25T11:14:34.907Z,0.70
2022-12-25T11:17:22.281Z,1.10
2022-12-25T11:20:18.102Z,0.90
2022-12-25T11:23:00.935Z,0.80
2022-12-25T11:25:43.727Z,0.70
2022-12-25T11:28:30.313Z,0.80
2022-12-25T11:31:16.222Z,0.70
2022-12-25T11:34:06.244Z,1.10
2022-12-25T11:36:50.935Z,1.20
2022-12-25T11:42:23.678Z,1.20
2022-12-25T11:45:12.820Z,1.05
2022-12-25T11:47:58.788Z,0.90
2022-12-25T11:50:45.861Z,1.00
2022-12-25T11:53:32.768Z,0.90
2022-12-25T11:56:19.953Z,1.00
2022-12-25T11:59:12.482Z,1.10
2022-12-25T12:02:03.701Z,1.10
2022-12-25T12:04:51.952Z,0.85
2022-12-25T12:07:36.406Z,0.98
2022-12-25T12:10:22.723Z,0.90
2022-12-25T12:13:29.675Z,0.90
2022-12-25T12:16:12.824Z,0.77
2022-12-25T12:18:57.097Z,1.08
2022-12-25T12:21:44.116Z,0.80
2022-12-25T12:24:30.895Z,1.00
2022-12-25T12:27:24.354Z,0.80
2022-12-25T12:30:24.729Z,1.17
2022-12-25T12:33:08.954Z,0.85
2022-12-25T12:35:53.727Z,0.90
2022-12-25T12:38:37.175Z,0.90
2022-12-25T12:41:22.008Z,0.70
2022-12-25T12:44:07.609Z,0.90
2022-12-25T12:46:55.290Z,0.80
2022-12-25T12:49:38.129Z,0.75
2022-12-25T12:52:25.564Z,0.70
2022-12-25T12:55:13.088Z,0.88
2022-12-25T12:58:00.142Z,0.70
2022-12-25T13:00:50.784Z,0.90
2022-12-25T13:04:00.157Z,0.88
2022-12-25T13:06:47.340Z,0.80
2022-12-25T13:09:44.279Z,0.70
2022-12-25T13:12:27.365Z,0.85
2022-12-25T13:15:14.321Z,0.60
2022-12-25T13:18:01.727Z,0.60
2022-12-25T13:20:54.787Z,0.95
2022-12-25T13:23:39.128Z,0.88
2022-12-25T13:26:23.843Z,0.50
2022-12-25T13:31:54.565Z,0.63
2022-12-25T13:34:39.589Z,0.50
2022-12-25T13:37:24.928Z,0.40
2022-12-25T13:40:19.047Z,0.57
2022-12-25T13:43:02.395Z,0.60
2022-12-25T13:45:55.181Z,0.77
2022-12-25T13:48:38.039Z,1.23
2022-12-25T13:51:21.638Z,1.40
2022-12-25T13:54:05.481Z,1.00
2022-12-25T13:56:51.458Z,0.90
2022-12-25T13:59:38.263Z,0.80
2022-12-25T14:02:25.113Z,0.57
2022-12-25T14:05:25.265Z,0.65
2022-12-25T14:08:15.688Z,0.80
2022-12-25T14:10:59.532Z,1.05
2022-12-25T14:13:45.180Z,0.90
2022-12-25T14:16:29.920Z,0.70
2022-12-25T14:22:11.308Z,0.63
2022-12-25T14:24:54.616Z,0.50
2022-12-25T14:27:38.164Z,0.60
2022-12-25T14:30:21.152Z,0.40
2022-12-25T14:33:07.578Z,0.80
2022-12-25T14:35:51.987Z,0.73
2022-12-25T14:38:35.866Z,0.73
2022-12-25T14:41:33.571Z,0.60
2022-12-25T14:44:31.942Z,0.47
2022-12-25T14:47:18.068Z,2.30
2022-12-25T14:50:02.571Z,10.55
2022-12-25T14:52:46.440Z,6.50
2022-12-25T14:55:30.963Z,9.80
2022-12-25T14:58:22.418Z,10.30
2022-12-25T15:01:06.621Z,11.68
2022-12-25T15:03:50.840Z,13.85
2022-12-25T15:06:35.171Z,11.82
2022-12-25T15:09:19.104Z,7.32
2022-12-25T15:12:01.928Z,6.43
2022-12-25T15:14:44.761Z,4.60
2022-12-25T15:17:29.933Z,2.83
2022-12-25T15:20:14.196Z,2.35
2022-12-25T15:23:19.444Z,1.50
2022-12-25T15:26:02.865Z,0.88
2022-12-25T15:28:45.672Z,0.60
2022-12-25T15:31:30.238Z,0.60
2022-12-25T15:36:59.721Z,0.30
2022-12-25T15:39:44.263Z,0.50
2022-12-25T15:42:27.584Z,0.80
2022-12-25T15:45:21.252Z,0.80
2022-12-25T15:48:04.054Z,0.68
2022-12-25T15:50:46.946Z,1.10
2022-12-25T15:53:29.736Z,0.98
2022-12-25T15:56:14.203Z,0.80
2022-12-25T15:58:57.196Z,0.80
2022-12-25T16:01:42.482Z,0.90
2022-12-25T16:04:27.922Z,1.02
2022-12-25T16:07:15.277Z,1.30
2022-12-25T16:09:58.043Z,1.23
2022-12-25T16:12:42.266Z,1.00
2022-12-25T16:15:25.135Z,1.10
2022-12-25T16:18:08.171Z,1.00
2022-12-25T16:20:51.183Z,1.13
2022-12-25T16:23:33.978Z,1.13
2022-12-25T16:26:17.964Z,1.00
2022-12-25T16:29:07.003Z,0.80
2022-12-25T16:31:50.426Z,1.05
2022-12-25T16:34:33.222Z,0.75
2022-12-25T16:37:16.050Z,0.90
2022-12-25T16:39:58.830Z,0.90
2022-12-25T16:42:41.739Z,0.80
2022-12-25T16:45:25.892Z,0.80
2022-12-25T16:48:08.852Z,0.80
2022-12-25T16:50:51.655Z,0.95
2022-12-25T16:53:34.565Z,1.10
2022-12-25T16:56:20.545Z,0.90
2022-12-25T16:59:03.663Z,0.90
2022-12-25T17:01:47.983Z,0.75
2022-12-25T17:04:31.096Z,1.00
2022-12-25T17:07:15.342Z,0.90
2022-12-25T17:09:58.286Z,0.90
2022-12-25T17:12:41.410Z,0.90
2022-12-25T17:15:24.221Z,0.80
2022-12-25T17:18:08.361Z,0.93
2022-12-25T17:20:52.404Z,1.00
2022-12-25T17:23:35.248Z,1.00
2022-12-25T17:26:18.168Z,0.63
2022-12-25T17:29:01.241Z,1.00
2022-12-25T17:31:44.143Z,0.80
2022-12-25T17:34:28.513Z,0.70
2022-12-25T17:37:11.316Z,0.65
2022-12-25T17:39:54.138Z,0.70
2022-12-25T17:42:36.942Z,0.60
2022-12-25T17:45:19.816Z,0.70
2022-12-25T17:48:02.607Z,0.60
2022-12-25T17:50:47.366Z,0.70
2022-12-25T17:53:30.363Z,0.55
2022-12-25T17:56:14.168Z,0.57
2022-12-25T17:59:00.024Z,0.60
2022-12-25T18:01:42.892Z,0.50
2022-12-25T18:04:25.863Z,0.60
2022-12-25T18:07:10.089Z,0.43
2022-12-25T18:09:52.874Z,0.60
2022-12-25T18:12:35.729Z,0.60
2022-12-25T18:15:18.607Z,0.60
2022-12-25T18:18:01.418Z,0.60
2022-12-25T18:20:44.224Z,0.57
2022-12-25T18:23:28.980Z,0.68
2022-12-25T18:26:12.871Z,0.45
2022-12-25T18:28:56.071Z,0.70
2022-12-25T18:31:38.964Z,0.57
2022-12-25T18:34:21.807Z,0.60
2022-12-25T18:37:05.317Z,0.93
2022-12-25T18:39:49.563Z,0.60
2022-12-25T18:42:41.327Z,0.50
2022-12-25T18:45:24.280Z,0.60
2022-12-25T18:48:07.804Z,0.68
2022-12-25T18:50:57.482Z,0.40
2022-12-25T18:53:40.654Z,0.88
2022-12-25T18:56:24.825Z,0.45
2022-12-25T18:59:07.623Z,0.40
2022-12-25T19:01:50.633Z,0.40
2022-12-25T19:04:33.534Z,0.40
2022-12-25T19:07:16.403Z,0.40
2022-12-25T19:09:59.232Z,0.40
2022-12-25T19:12:43.402Z,0.40
2022-12-25T19:15:26.244Z,0.40
2022-12-25T19:18:09.217Z,0.50
2022-12-25T19:20:51.997Z,0.40
2022-12-25T19:23:34.872Z,0.40
2022-12-25T19:26:17.637Z,0.60
2022-12-25T19:29:01.807Z,0.35
2022-12-25T19:31:45.118Z,0.32
2022-12-25T19:34:27.986Z,0.47
2022-12-25T19:37:10.879Z,0.43
2022-12-25T19:39:53.699Z,0.70
2022-12-25T19:42:36.557Z,0.50
2022-12-25T19:45:21.562Z,0.40
2022-12-25T19:48:04.861Z,0.50
2022-12-25T19:50:47.690Z,0.40
2022-12-25T19:53:31.521Z,0.50
2022-12-25T19:56:14.795Z,0.40
2022-12-25T19:58:58.435Z,0.70
2022-12-25T20:01:43.170Z,0.50
2022-12-25T20:04:26.165Z,0.60
2022-12-25T20:07:08.953Z,0.50
2022-12-25T20:09:51.786Z,0.50
2022-12-25T20:12:34.555Z,0.40
2022-12-25T20:15:17.599Z,0.40
2022-12-25T20:18:02.893Z,0.43
2022-12-25T20:20:46.064Z,0.40
2022-12-25T20:23:29.743Z,0.30
2022-12-25T20:26:14.043Z,0.30
2022-12-25T20:28:58.192Z,0.30
2022-12-25T20:31:40.989Z,0.30
2022-12-25T20:34:25.253Z,0.30
2022-12-25T20:37:08.099Z,0.40
2022-12-25T20:39:50.919Z,0.30
2022-12-25T20:42:33.753Z,0.30
2022-12-25T20:45:17.984Z,0.30
2022-12-25T20:48:01.143Z,1.23
2022-12-25T20:50:45.286Z,1.52
2022-12-25T20:53:28.067Z,1.13
2022-12-25T20:56:11.781Z,0.93
2022-12-25T20:58:56.049Z,0.77
2022-12-25T21:01:38.927Z,0.70
2022-12-25T21:04:21.926Z,1.02
2022-12-25T21:07:06.258Z,1.20
2022-12-25T21:09:49.074Z,1.05
2022-12-25T21:12:31.868Z,0.70
2022-12-25T21:15:15.917Z,0.77
2022-12-25T21:17:58.825Z,0.50
2022-12-25T21:20:44.271Z,0.40
2022-12-25T21:23:29.938Z,0.70
2022-12-25T21:26:13.977Z,0.60
2022-12-25T21:29:00.207Z,0.80
2022-12-25T21:31:57.036Z,0.70
2022-12-25T21:34:40.014Z,0.50
2022-12-25T21:37:22.827Z,0.80
2022-12-25T21:40:11.371Z,0.90
2022-12-25T21:42:57.225Z,1.10
2022-12-25T21:45:40.074Z,1.10
2022-12-25T21:48:22.876Z,1.02
2022-12-25T21:51:25.354Z,1.00
2022-12-25T21:54:08.753Z,0.90
2022-12-25T21:56:52.909Z,1.10
2022-12-25T21:59:35.710Z,0.73
2022-12-25T22:02:18.795Z,0.80
2022-12-25T22:05:01.818Z,0.77
2022-12-25T22:07:43.680Z,0.85
2022-12-25T22:10:26.577Z,0.70
2022-12-25T22:13:29.046Z,0.70
2022-12-25T22:16:29.726Z,0.98
2022-12-25T22:19:29.931Z,0.82
2022-12-25T22:22:13.371Z,0.88
2022-12-25T22:24:57.472Z,0.75
2022-12-25T22:27:41.719Z,0.85
2022-12-25T22:30:27.750Z,1.20
2022-12-25T22:33:10.616Z,1.33
2022-12-25T22:36:02.599Z,1.20
2022-12-25T22:38:46.337Z,1.15
2022-12-25T22:41:33.522Z,1.08
2022-12-25T22:44:17.997Z,1.00
2022-12-25T22:47:02.377Z,1.20
2022-12-25T22:49:45.469Z,0.77
2022-12-25T22:52:28.312Z,0.77
2022-12-25T22:55:11.717Z,0.90
2022-12-25T22:57:55.712Z,1.20
2022-12-25T23:00:44.279Z,1.45
2022-12-25T23:03:30.505Z,1.20
2022-12-25T23:06:13.669Z,1.05
2022-12-25T23:08:56.734Z,0.90
2022-12-25T23:11:39.897Z,1.38
2022-12-25T23:14:39.701Z,1.40
2022-12-25T23:17:40.495Z,1.33
2022-12-25T23:20:42.259Z,1.40
2022-12-25T23:23:42.736Z,1.58
2022-12-25T23:26:25.557Z,1.80
2022-12-25T23:29:26.100Z,1.75
2022-12-25T23:32:11.353Z,1.27
2022-12-25T23:34:54.338Z,1.25
2022-12-25T23:37:38.520Z,1.65
2022-12-25T23:40:21.290Z,0.95
2022-12-25T23:43:04.101Z,1.20
2022-12-25T23:45:47.057Z,1.50
2022-12-25T23:48:29.879Z,1.20
2022-12-25T23:51:12.802Z,1.20
2022-12-25T23:53:57.085Z,1.40
2022-12-25T23:56:40.700Z,1.45
2022-12-25T23:59:23.605Z,1.45
